Time;durP1;ratioP1;P1;durP2;ratioP2;P2;SDS_P1;SDS_P2;PMS_P1;PMS_P2;Temp;Humidity;BMP_temperature;BMP_pressure;BME280_temperature;BME280_humidity;BME280_pressure;Samples;Min_cycle;Max_cycle;Signal;HPM_P1;HPM_P2
2022/03/19 00:01:24;;;;;;;56.07;47.30;;;7.40;55.50;;;;;;6246163;22;20857;-81
2022/03/19 00:04:16;;;;;;;58.93;49.33;;;7.40;54.90;;;;;;6249159;22;20726;-81
2022/03/19 00:07:46;;;;;;;49.97;44.77;;;7.40;54.80;;;;;;6245426;22;20408;-81
2022/03/19 00:10:44;;;;;;;53.90;48.00;;;7.50;54.50;;;;;;6234611;22;20377;-81
2022/03/19 00:13:38;;;;;;;57.07;50.97;;;7.50;54.80;;;;;;6227785;22;20392;-81
2022/03/19 00:16:29;;;;;;;55.93;48.30;;;7.50;54.20;;;;;;6248225;22;20397;-81
2022/03/19 00:19:11;;;;;;;51.53;45.97;;;7.40;54.80;;;;;;6248424;22;20381;-81
2022/03/19 00:21:55;;;;;;;53.80;48.10;;;7.40;54.80;;;;;;6246415;22;20403;-81
2022/03/19 00:24:41;;;;;;;51.50;45.97;;;7.40;55.00;;;;;;6248718;22;20420;-81
2022/03/19 00:27:30;;;;;;;50.93;44.80;;;7.40;55.00;;;;;;6248691;22;20427;-81
2022/03/19 00:30:21;;;;;;;;;;;;;;;;;;;;;
2022/03/19 00:39:39;;;;;;;49.20;43.63;;;7.40;54.80;;;;;;6203216;23;20745;-81
2022/03/19 00:42:29;;;;;;;53.63;44.97;;;7.30;54.90;;;;;;6183706;23;20419;-81
2022/03/19 00:48:02;;;;;;;53.80;48.03;;;7.30;55.10;;;;;;6259648;22;20384;-81
2022/03/19 00:50:47;;;;;;;50.03;44.73;;;7.40;54.60;;;;;;6247515;22;20463;-81
2022/03/19 00:53:47;;;;;;;55.70;49.90;;;7.40;54.90;;;;;;6248095;22;20389;-81
2022/03/19 00:56:26;;;;;;;48.73;43.70;;;7.30;55.00;;;;;;6247818;22;20476;-81
2022/03/19 00:58:55;;;;;;;52.00;46.60;;;7.30;54.90;;;;;;6248478;22;20395;-81
2022/03/19 01:02:05;;;;;;;52.20;46.07;;;7.30;54.60;;;;;;6247772;22;20385;-81
2022/03/19 01:05:02;;;;;;;52.93;47.07;;;7.30;54.70;;;;;;6225552;22;20671;-81
2022/03/19 01:07:48;;;;;;;53.03;43.50;;;7.30;54.30;;;;;;6247086;22;20393;-81
2022/03/19 01:10:16;;;;;;;51.67;45.57;;;7.20;53.80;;;;;;6246262;22;20392;-81
2022/03/19 01:13:19;;;;;;;50.70;44.10;;;7.20;54.30;;;;;;6248228;22;20377;-81
2022/03/19 01:16:39;;;;;;;53.30;47.40;;;7.30;53.90;;;;;;6165672;23;20396;-81
2022/03/19 01:19:14;;;;;;;49.43;44.13;;;7.20;53.20;;;;;;6247668;22;20457;-81
2022/03/19 01:22:14;;;;;;;52.03;46.53;;;7.20;53.30;;;;;;6248599;22;20475;-81
2022/03/19 01:25:05;;;;;;;49.57;44.30;;;7.20;52.90;;;;;;6249810;22;20389;-81
2022/03/19 01:27:38;;;;;;;52.83;46.33;;;7.30;52.40;;;;;;6248651;22;20392;-81
2022/03/19 01:30:24;;;;;;;49.80;44.00;;;7.20;52.60;;;;;;6249079;22;20923;-81
2022/03/19 01:33:12;;;;;;;47.17;42.20;;;7.20;51.70;;;;;;6248589;22;20378;-81
2022/03/19 01:36:06;;;;;;;;;;;;;;;;;;;;;
2022/03/19 01:39:00;;;;;;;;;;;;;;;;;;;;;
2022/03/19 01:41:47;;;;;;;53.67;47.80;;;7.10;52.30;;;;;;6275642;22;20451;-81
2022/03/19 01:44:28;;;;;;;47.67;42.77;;;7.20;51.40;;;;;;6273610;22;20937;-81
2022/03/19 01:47:47;;;;;;;52.70;46.10;;;7.10;51.40;;;;;;6274394;22;20389;-81
2022/03/19 01:50:44;;;;;;;52.83;47.33;;;7.10;51.60;;;;;;6272737;22;20379;-81
2022/03/19 01:53:32;;;;;;;46.23;28.97;;;7.10;51.80;;;;;;6273509;22;20584;-81
2022/03/19 01:56:03;;;;;;;47.27;38.70;;;7.10;51.20;;;;;;6273675;22;20389;-81
2022/03/19 01:58:55;;;;;;;;;;;;;;;;;;;;;
2022/03/19 02:01:54;;;;;;;52.37;46.60;;;7.10;51.90;;;;;;6275459;22;20901;-81
2022/03/19 02:04:38;;;;;;;50.87;44.53;;;7.00;52.00;;;;;;6273877;22;20400;-81
2022/03/19 02:07:14;;;;;;;49.80;44.50;;;7.00;51.70;;;;;;6273778;22;20384;-81
2022/03/19 02:10:42;;;;;;;49.00;43.83;;;7.00;51.90;;;;;;6274238;22;20384;-80
2022/03/19 02:13:10;;;;;;;48.53;43.53;;;7.00;51.10;;;;;;6241164;22;20394;-81
2022/03/19 02:15:56;;;;;;;46.37;41.60;;;7.00;51.30;;;;;;6273899;22;20435;-81
2022/03/19 02:18:33;;;;;;;51.43;46.10;;;7.00;51.00;;;;;;6271717;22;20389;-80
2022/03/19 02:21:18;;;;;;;50.80;45.47;;;7.00;51.10;;;;;;6270337;22;20385;-81
2022/03/19 02:27:08;;;;;;;47.10;42.10;;;6.90;51.10;;;;;;6257132;22;20507;-82
2022/03/19 02:29:34;;;;;;;49.87;44.60;;;6.90;51.00;;;;;;6270977;22;20403;-82
2022/03/19 02:32:54;;;;;;;47.53;42.70;;;6.90;50.80;;;;;;6271163;22;20413;-82
2022/03/19 02:35:54;;;;;;;47.33;42.50;;;6.90;50.70;;;;;;6272248;22;20436;-81
2022/03/19 02:38:56;;;;;;;46.93;42.07;;;6.90;50.50;;;;;;6240966;22;20395;-82
2022/03/19 02:42:00;;;;;;;48.83;44.03;;;6.90;50.50;;;;;;6245102;22;20464;-80
2022/03/19 02:51:52;;;;;;;50.33;45.07;;;7.00;49.70;;;;;;6274676;22;20384;-81
2022/03/19 02:55:03;;;;;;;49.37;42.70;;;6.90;49.80;;;;;;6156810;23;20427;-81
2022/03/19 02:57:46;;;;;;;;;;;;;;;;;;;;;
2022/03/19 03:00:12;;;;;;;43.47;33.67;;;6.90;49.80;;;;;;6181427;23;20487;-81
2022/03/19 03:02:47;;;;;;;38.80;34.27;;;6.90;49.90;;;;;;6158104;23;20899;-81
2022/03/19 03:05:12;;;;;;;43.07;36.77;;;6.90;49.80;;;;;;6248263;22;20416;-81
2022/03/19 03:07:44;;;;;;;45.17;40.30;;;6.90;50.00;;;;;;6249494;22;20394;-81
2022/03/19 03:10:24;;;;;;;45.47;40.70;;;6.90;49.30;;;;;;6249649;22;20154;-81
2022/03/19 03:12:49;;;;;;;45.27;40.50;;;6.90;49.40;;;;;;6248144;22;20896;-81
2022/03/19 03:15:43;;;;;;;46.00;41.30;;;6.90;49.60;;;;;;6245670;22;20425;-81
2022/03/19 03:18:11;;;;;;;45.97;41.20;;;6.90;49.90;;;;;;6268648;22;20566;-81
2022/03/19 03:20:36;;;;;;;45.30;40.33;;;6.80;49.60;;;;;;6246581;22;20378;-81
2022/03/19 03:23:06;;;;;;;49.03;43.93;;;6.80;49.60;;;;;;6272726;22;20269;-81
2022/03/19 03:25:31;;;;;;;48.87;44.00;;;6.80;49.40;;;;;;6246712;22;20425;-81
2022/03/19 03:27:59;;;;;;;44.07;39.40;;;6.80;49.10;;;;;;6247223;22;20527;-81
2022/03/19 03:30:27;;;;;;;45.77;40.83;;;6.90;49.20;;;;;;6246250;22;20321;-81
2022/03/19 03:33:11;;;;;;;47.40;42.50;;;6.80;49.20;;;;;;6247097;22;20742;-81
2022/03/19 03:35:43;;;;;;;45.63;40.00;;;6.90;49.20;;;;;;6263742;22;20532;-81
2022/03/19 03:41:28;;;;;;;45.17;40.27;;;6.90;49.20;;;;;;6239738;23;20382;-81
2022/03/19 03:48:41;;;;;;;49.10;44.00;;;6.80;49.40;;;;;;6250829;22;20177;-81
2022/03/19 03:51:47;;;;;;;46.70;41.80;;;6.70;50.40;;;;;;6140297;22;20391;-81
2022/03/19 03:54:46;;;;;;;48.80;43.57;;;6.60;49.70;;;;;;6271576;22;20745;-81
2022/03/19 04:04:08;;;;;;;45.50;40.80;;;6.60;50.10;;;;;;6252102;22;20734;-81
2022/03/19 04:13:18;;;;;;;46.87;41.80;;;6.70;49.70;;;;;;6273699;22;20384;-83
2022/03/19 04:20:08;;;;;;;;;;;;;;;;;;;;;
2022/03/19 04:22:48;;;;;;;44.97;40.07;;;6.70;49.70;;;;;;6243910;22;20484;-81
2022/03/19 04:26:10;;;;;;;41.67;37.50;;;6.50;49.50;;;;;;6272241;22;20385;-80
2022/03/19 04:28:39;;;;;;;48.97;43.77;;;6.50;49.50;;;;;;6264130;22;20385;-81
2022/03/19 04:31:45;;;;;;;47.07;42.00;;;6.50;49.50;;;;;;6274555;22;20866;-81
2022/03/19 04:34:32;;;;;;;45.70;41.00;;;6.50;49.50;;;;;;6275049;22;20467;-80
2022/03/19 04:37:08;;;;;;;50.40;41.37;;;6.40;49.40;;;;;;6274892;22;20416;-81
2022/03/19 04:39:34;;;;;;;44.97;40.47;;;6.40;49.50;;;;;;6273844;22;20393;-81
2022/03/19 04:41:59;;;;;;;44.47;39.87;;;6.40;49.50;;;;;;6274273;22;20877;-80
2022/03/19 04:44:25;;;;;;;43.10;38.57;;;6.40;49.40;;;;;;6274207;22;20245;-81
2022/03/19 04:47:09;;;;;;;46.70;41.60;;;6.50;49.50;;;;;;6274094;22;20161;-80
2022/03/19 04:49:41;;;;;;;43.30;38.80;;;6.40;49.40;;;;;;6274093;22;20161;-80
2022/03/19 04:52:13;;;;;;;45.07;40.47;;;6.30;49.30;;;;;;6274508;22;20436;-81
2022/03/19 04:55:04;;;;;;;45.13;40.47;;;6.40;49.40;;;;;;6275776;22;20511;-85
2022/03/19 04:57:32;;;;;;;42.87;38.37;;;6.50;49.50;;;;;;6274917;22;20388;-85
2022/03/19 05:00:46;;;;;;;;;;;;;;;;;;;;;
2022/03/19 05:06:24;;;;;;;45.40;40.80;;;6.20;49.50;;;;;;6159585;23;20388;-88
2022/03/19 05:11:35;;;;;;;45.93;41.10;;;6.20;49.20;;;;;;6182141;23;20359;-80
2022/03/19 05:14:39;;;;;;;47.03;42.30;;;6.20;50.50;;;;;;6237350;22;20424;-83
2022/03/19 05:17:05;;;;;;;44.47;39.80;;;6.30;50.40;;;;;;6274097;22;20385;-80
2022/03/19 05:19:53;;;;;;;45.50;40.60;;;6.20;51.80;;;;;;6274429;22;20420;-80
2022/03/19 05:25:52;;;;;;;44.93;40.53;;;6.20;51.20;;;;;;6243119;22;20865;-80
2022/03/19 05:29:06;;;;;;;46.30;41.60;;;6.20;51.50;;;;;;6274666;22;20469;-81
2022/03/19 05:31:32;;;;;;;45.17;40.20;;;6.30;49.70;;;;;;6274599;22;20857;-81
2022/03/19 05:37:01;;;;;;;44.53;40.00;;;6.20;49.70;;;;;;6276179;22;20177;-80
2022/03/19 05:40:03;;;;;;;46.07;41.33;;;6.10;50.30;;;;;;6276081;22;20370;-80
2022/03/19 05:42:35;;;;;;;45.70;41.17;;;6.20;50.20;;;;;;6212543;22;20392;-82
2022/03/19 05:45:24;;;;;;;;;;;;;;;;;;;;;
2022/03/19 05:47:51;;;;;;;44.63;40.27;;;6.10;50.00;;;;;;6276129;22;20929;-83
2022/03/19 05:50:48;;;;;;;45.17;40.73;;;6.00;49.80;;;;;;6248454;22;20869;-83
2022/03/19 05:53:13;;;;;;;46.93;41.97;;;6.10;49.20;;;;;;6248486;22;20956;-81
2022/03/19 05:55:59;;;;;;;43.03;38.63;;;6.20;49.20;;;;;;6249131;22;20457;-83
2022/03/19 05:59:02;;;;;;;;;;;;;;;;;;;;;
2022/03/19 06:01:56;;;;;;;43.00;38.90;;;6.10;49.10;;;;;;6276643;22;20453;-80
2022/03/19 06:04:28;;;;;;;47.97;42.90;;;6.10;49.20;;;;;;6275971;22;20366;-80
2022/03/19 06:07:06;;;;;;;45.93;40.77;;;6.10;49.10;;;;;;6248865;22;20473;-83
2022/03/19 06:09:32;;;;;;;46.30;41.30;;;6.10;49.20;;;;;;6249817;22;20385;-83
2022/03/19 06:11:58;;;;;;;43.40;38.77;;;6.10;49.10;;;;;;6248938;22;20422;-81
2022/03/19 06:14:24;;;;;;;46.43;41.70;;;6.00;49.70;;;;;;6248725;22;20496;-80
2022/03/19 06:16:54;;;;;;;45.07;40.43;;;5.90;49.00;;;;;;6248830;22;20260;-82
2022/03/19 06:19:19;;;;;;;47.07;42.00;;;6.00;49.70;;;;;;6248821;22;20377;-81
2022/03/19 06:21:48;;;;;;;43.53;38.67;;;6.00;49.50;;;;;;6248870;22;20704;-81
2022/03/19 06:24:14;;;;;;;44.73;39.80;;;6.00;50.20;;;;;;6248916;22;20162;-81
2022/03/19 06:26:42;;;;;;;44.27;39.77;;;5.90;49.70;;;;;;6249534;22;20386;-81
2022/03/19 06:29:08;;;;;;;47.23;42.33;;;6.10;49.70;;;;;;6250827;22;20232;-81
2022/03/19 06:31:34;;;;;;;42.90;38.60;;;6.10;49.70;;;;;;6250685;22;20426;-81
2022/03/19 06:34:00;;;;;;;48.40;43.70;;;6.10;49.80;;;;;;6250598;22;20495;-80
2022/03/19 06:39:09;;;;;;;44.93;40.13;;;6.20;49.20;;;;;;6278273;22;20157;-81
2022/03/19 06:41:35;;;;;;;44.53;39.87;;;6.30;48.60;;;;;;6276381;22;20389;-82
2022/03/19 06:44:16;;;;;;;47.97;42.90;;;6.20;49.20;;;;;;6278110;22;20154;-81
2022/03/19 06:47:18;;;;;;;45.77;41.03;;;6.30;48.50;;;;;;6276306;22;20146;-81
2022/03/19 06:49:45;;;;;;;45.10;40.47;;;6.30;48.90;;;;;;6273863;22;20860;-81
2022/03/19 06:52:14;;;;;;;45.40;40.80;;;6.40;48.20;;;;;;6275444;22;20880;-82
2022/03/19 06:55:06;;;;;;;45.50;39.67;;;6.30;48.30;;;;;;6275152;22;20425;-82
2022/03/19 06:57:37;;;;;;;46.10;41.40;;;6.40;47.90;;;;;;6187845;23;20639;-81
2022/03/19 07:00:09;;;;;;;44.70;40.00;;;6.40;47.50;;;;;;6275760;22;20386;-82
2022/03/19 07:02:50;;;;;;;41.10;36.73;;;6.50;47.00;;;;;;6274646;22;20382;-81
2022/03/19 07:05:23;;;;;;;43.23;38.77;;;6.40;46.90;;;;;;6275534;22;20424;-82
2022/03/19 07:07:49;;;;;;;40.40;35.97;;;6.60;46.10;;;;;;6275419;22;20400;-82
2022/03/19 07:10:15;;;;;;;42.40;37.90;;;6.50;45.80;;;;;;6274914;22;20404;-82
2022/03/19 07:13:20;;;;;;;42.07;37.83;;;6.40;46.50;;;;;;6274908;22;20934;-82
2022/03/19 07:16:17;;;;;;;43.20;38.80;;;6.50;46.00;;;;;;6184987;23;20461;-82
2022/03/19 07:18:42;;;;;;;42.20;37.87;;;6.40;45.10;;;;;;6217778;22;20447;-78
2022/03/19 07:21:10;;;;;;;45.27;40.60;;;6.50;45.50;;;;;;6275539;22;20388;-80
2022/03/19 07:23:37;;;;;;;45.33;40.73;;;6.50;45.30;;;;;;6274886;22;20497;-79
2022/03/19 07:26:02;;;;;;;41.97;37.57;;;6.70;46.20;;;;;;6274057;22;20454;-79
2022/03/19 07:28:28;;;;;;;41.80;37.63;;;6.70;45.10;;;;;;6273678;22;20874;-78
2022/03/19 07:30:56;;;;;;;42.37;37.97;;;6.80;44.00;;;;;;6273739;22;20150;-79
2022/03/19 07:33:33;;;;;;;35.97;32.27;;;6.80;43.60;;;;;;6274673;22;20397;-79
2022/03/19 07:36:05;;;;;;;42.10;37.70;;;6.90;43.60;;;;;;6275184;22;20472;-79
2022/03/19 07:38:32;;;;;;;42.73;38.13;;;6.90;43.60;;;;;;6275293;22;20711;-80
2022/03/19 07:43:42;;;;;;;39.90;35.83;;;7.00;43.30;;;;;;6276300;22;20849;-80
2022/03/19 07:46:09;;;;;;;36.37;32.70;;;7.00;41.90;;;;;;6274918;22;20420;-80
2022/03/19 07:48:34;;;;;;;40.90;35.70;;;7.10;42.50;;;;;;6275327;22;20388;-80
2022/03/19 07:51:03;;;;;;;41.10;36.90;;;7.20;41.80;;;;;;6276481;22;20455;-80
2022/03/19 07:53:29;;;;;;;33.60;30.30;;;7.30;41.40;;;;;;6274918;22;20154;-80
2022/03/19 07:56:01;;;;;;;37.97;32.10;;;7.20;41.00;;;;;;6275034;22;20992;-81
2022/03/19 07:58:29;;;;;;;36.13;32.33;;;7.30;41.80;;;;;;6275152;22;20373;-79
2022/03/19 08:01:01;;;;;;;27.70;20.40;;;7.40;41.40;;;;;;6274788;22;20744;-80
2022/03/19 08:03:27;;;;;;;29.80;26.70;;;7.40;40.20;;;;;;6274880;22;20373;-80
2022/03/19 08:05:53;;;;;;;28.37;19.67;;;7.40;39.40;;;;;;6276553;22;20405;-80
2022/03/19 08:08:18;;;;;;;29.57;19.50;;;7.50;39.20;;;;;;6274751;22;20413;-80
2022/03/19 08:10:45;;;;;;;24.40;18.50;;;7.50;38.60;;;;;;6274664;22;20403;-80
2022/03/19 08:13:17;;;;;;;25.83;19.60;;;7.70;38.50;;;;;;6274891;22;20215;-80
2022/03/19 08:15:49;;;;;;;27.00;19.43;;;7.70;38.10;;;;;;6274475;22;20428;-80
2022/03/19 08:18:15;;;;;;;22.63;17.63;;;7.80;36.80;;;;;;6274829;22;20388;-80
2022/03/19 08:20:46;;;;;;;23.73;18.50;;;7.80;35.80;;;;;;6276021;22;20464;-78
2022/03/19 08:23:15;;;;;;;25.00;19.30;;;7.80;36.10;;;;;;6274378;22;20908;-80
2022/03/19 08:25:44;;;;;;;20.20;16.00;;;7.90;36.00;;;;;;6274863;22;20389;-80
2022/03/19 08:28:19;;;;;;;20.33;16.27;;;7.90;35.80;;;;;;6274926;22;20417;-81
2022/03/19 08:30:45;;;;;;;29.93;20.20;;;8.10;34.60;;;;;;6274520;22;20373;-80
2022/03/19 08:33:11;;;;;;;23.87;18.10;;;8.00;34.20;;;;;;6274492;22;20913;-80
2022/03/19 08:35:36;;;;;;;27.70;19.30;;;8.00;33.60;;;;;;6274106;22;20546;-80
2022/03/19 08:40:46;;;;;;;24.67;16.93;;;8.20;32.80;;;;;;6275931;22;20141;-80
2022/03/19 08:43:15;;;;;;;16.57;13.30;;;8.20;32.00;;;;;;6275789;22;20456;-79
2022/03/19 08:45:44;;;;;;;26.30;17.93;;;8.20;32.80;;;;;;6248122;22;20163;-78
2022/03/19 08:48:10;;;;;;;25.70;19.40;;;8.30;33.50;;;;;;6249188;22;20392;-79
2022/03/19 08:50:43;;;;;;;18.40;16.07;;;8.40;32.20;;;;;;6249030;22;20386;-79
2022/03/19 08:53:27;;;;;;;23.50;18.20;;;8.60;31.80;;;;;;6247185;22;20713;-84
2022/03/19 08:55:56;;;;;;;20.43;16.90;;;8.60;31.30;;;;;;6249135;22;20421;-85
2022/03/19 08:58:25;;;;;;;20.47;17.10;;;8.70;32.70;;;;;;6249276;22;20464;-84
2022/03/19 09:00:57;;;;;;;21.70;17.60;;;8.70;31.90;;;;;;6248423;22;20390;-83
2022/03/19 09:03:26;;;;;;;19.77;15.50;;;8.80;31.40;;;;;;6248594;22;20401;-82
2022/03/19 09:05:52;;;;;;;25.60;15.20;;;8.90;30.00;;;;;;6248223;22;20393;-83
2022/03/19 09:08:18;;;;;;;21.80;17.77;;;9.00;34.00;;;;;;6248432;22;20369;-82
2022/03/19 09:10:44;;;;;;;25.03;18.77;;;9.10;30.80;;;;;;6248816;22;20393;-82
2022/03/19 09:13:10;;;;;;;17.07;14.40;;;9.30;32.00;;;;;;6231462;22;20219;-82
2022/03/19 09:16:00;;;;;;;24.97;18.33;;;9.50;30.50;;;;;;6213652;23;20425;-83
2022/03/19 09:18:26;;;;;;;22.73;17.33;;;9.50;29.60;;;;;;6181229;23;20447;-83
2022/03/19 09:20:57;;;;;;;19.87;16.37;;;9.40;29.60;;;;;;6165511;23;20413;-82
2022/03/19 09:23:24;;;;;;;27.93;18.90;;;9.40;29.70;;;;;;6208233;23;20194;-82
2022/03/19 09:25:54;;;;;;;23.77;18.00;;;9.50;28.80;;;;;;6207399;23;20405;-82
2022/03/19 09:28:41;;;;;;;22.83;17.43;;;9.60;28.90;;;;;;6209450;23;20385;-82
2022/03/19 09:31:07;;;;;;;24.90;18.30;;;9.60;29.10;;;;;;6234163;23;20382;-83
2022/03/19 09:33:36;;;;;;;26.47;18.53;;;9.50;28.70;;;;;;6204126;23;20730;-83
2022/03/19 09:36:15;;;;;;;25.90;19.83;;;9.60;29.20;;;;;;6173890;23;20321;-82
2022/03/19 09:38:50;;;;;;;21.40;18.07;;;9.70;29.20;;;;;;6200016;23;20410;-83
2022/03/19 09:41:16;;;;;;;23.43;17.13;;;9.70;29.40;;;;;;6204559;23;20416;-83
2022/03/19 09:43:42;;;;;;;23.87;18.70;;;9.80;28.90;;;;;;6179110;23;20411;-84
2022/03/19 09:46:21;;;;;;;25.53;18.57;;;9.90;28.60;;;;;;6217817;23;20147;-84
2022/03/19 09:48:53;;;;;;;21.40;17.47;;;9.90;28.00;;;;;;6191238;23;20500;-84
2022/03/19 09:51:44;;;;;;;24.43;17.90;;;9.90;28.60;;;;;;6202636;23;20405;-82
2022/03/19 09:54:29;;;;;;;;;;;;;;;;;;;;;
2022/03/19 09:56:59;;;;;;;21.70;17.57;;;10.10;27.10;;;;;;6209434;23;20509;-84
2022/03/19 09:59:29;;;;;;;28.77;25.77;;;10.00;26.60;;;;;;6186559;23;20906;-84
2022/03/19 10:02:16;;;;;;;;;;;;;;;;;;;;;
2022/03/19 10:04:42;;;;;;;24.43;18.40;;;10.00;26.90;;;;;;6215524;23;20436;-85
2022/03/19 10:10:20;;;;;;;25.33;17.13;;;10.10;26.00;;;;;;6168211;23;20254;-85
2022/03/19 10:12:46;;;;;;;21.40;17.93;;;10.10;26.20;;;;;;6158888;23;20418;-84
2022/03/19 10:15:15;;;;;;;21.90;17.70;;;10.30;26.30;;;;;;6171321;23;20941;-84
2022/03/19 10:17:43;;;;;;;22.17;17.03;;;10.30;25.80;;;;;;6178138;23;20472;-85
2022/03/19 10:20:15;;;;;;;20.00;17.50;;;10.30;25.60;;;;;;6197809;23;20422;-84
2022/03/19 10:22:45;;;;;;;19.53;16.37;;;10.40;25.10;;;;;;6179745;23;20403;-84
2022/03/19 10:25:13;;;;;;;22.80;16.27;;;10.70;26.40;;;;;;6200469;23;20418;-85
2022/03/19 10:27:43;;;;;;;23.50;16.60;;;10.80;25.70;;;;;;6204068;23;20418;-82
2022/03/19 10:30:20;;;;;;;26.03;18.60;;;10.90;25.50;;;;;;6204458;23;20794;-82
2022/03/19 10:32:53;;;;;;;26.00;18.37;;;11.10;25.50;;;;;;6205379;23;20552;-82
2022/03/19 10:35:42;;;;;;;26.90;17.57;;;11.10;25.70;;;;;;6191692;23;20945;-82
2022/03/19 10:38:47;;;;;;;26.80;18.70;;;11.20;24.70;;;;;;6196993;23;20426;-82
2022/03/19 10:41:20;;;;;;;29.40;26.50;;;11.30;25.50;;;;;;6181350;22;20414;-78
2022/03/19 10:43:54;;;;;;;30.80;27.57;;;11.30;25.80;;;;;;6178332;22;20413;-78
2022/03/19 10:46:33;;;;;;;26.80;19.03;;;11.30;26.40;;;;;;6199148;22;21122;-81
2022/03/19 10:49:03;;;;;;;23.27;17.73;;;11.30;26.60;;;;;;6231509;22;20387;-81
2022/03/19 10:51:31;;;;;;;23.47;17.67;;;11.20;25.40;;;;;;6249342;22;20439;-82
2022/03/19 10:54:02;;;;;;;29.00;20.90;;;11.20;26.10;;;;;;6249285;22;20443;-84
2022/03/19 10:56:33;;;;;;;24.80;19.80;;;11.00;26.60;;;;;;6249748;22;20389;-85
2022/03/19 10:59:00;;;;;;;29.03;21.23;;;11.00;27.00;;;;;;6246124;22;20446;-85
2022/03/19 11:01:27;;;;;;;27.47;21.13;;;11.00;27.90;;;;;;6249979;22;20381;-86
2022/03/19 11:04:28;;;;;;;27.27;19.37;;;11.00;27.60;;;;;;6249968;22;20788;-86
2022/03/19 11:06:55;;;;;;;32.90;21.17;;;10.90;27.20;;;;;;6249665;22;20421;-84
2022/03/19 11:09:27;;;;;;;30.93;22.63;;;10.80;27.70;;;;;;6249493;22;20708;-83
2022/03/19 11:12:00;;;;;;;25.50;20.30;;;10.80;28.20;;;;;;6249029;22;20747;-83
2022/03/19 11:14:32;;;;;;;26.43;19.63;;;10.70;28.00;;;;;;6250711;22;20494;-82
2022/03/19 11:17:40;;;;;;;;;;;;;;;;;;;;;
2022/03/19 11:20:09;;;;;;;26.43;17.20;;;10.70;28.10;;;;;;6276945;22;20464;-83
2022/03/19 11:26:02;;;;;;;25.00;18.50;;;10.70;27.40;;;;;;6198067;22;20388;-83
2022/03/19 11:28:39;;;;;;;21.00;15.80;;;10.80;26.70;;;;;;6249775;22;20443;-83
2022/03/19 11:31:17;;;;;;;19.33;14.53;;;10.90;25.00;;;;;;6250646;22;20377;-83
2022/03/19 11:33:45;;;;;;;15.60;12.93;;;10.90;24.20;;;;;;6249182;22;20876;-83
2022/03/19 11:36:12;;;;;;;22.53;19.33;;;10.90;24.70;;;;;;6252214;22;20409;-84
2022/03/19 11:38:49;;;;;;;20.27;18.23;;;10.90;23.80;;;;;;6275285;22;20385;-84
2022/03/19 11:41:45;;;;;;;17.43;11.83;;;10.90;24.40;;;;;;6277063;22;20444;-84
2022/03/19 11:44:48;;;;;;;12.47;9.97;;;10.90;24.90;;;;;;6276137;22;20389;-84
2022/03/19 11:47:38;;;;;;;14.43;9.67;;;10.90;23.80;;;;;;6182021;23;20412;-83
2022/03/19 11:50:46;;;;;;;16.40;14.70;;;11.00;23.90;;;;;;6274374;22;20390;-84
2022/03/19 11:53:14;;;;;;;14.23;11.07;;;11.10;24.00;;;;;;6274697;22;20435;-82
2022/03/19 11:55:40;;;;;;;10.57;9.07;;;11.10;23.40;;;;;;6275064;22;20845;-83
2022/03/19 11:58:12;;;;;;;13.80;10.87;;;11.00;23.90;;;;;;6274811;22;20401;-83
2022/03/19 12:01:02;;;;;;;18.87;11.30;;;11.10;24.00;;;;;;6276327;22;20362;-83
2022/03/19 12:03:30;;;;;;;14.13;11.57;;;11.10;24.10;;;;;;6274432;22;20850;-82
2022/03/19 12:10:40;;;;;;;20.40;10.00;;;11.20;24.00;;;;;;6276009;22;20468;-83
2022/03/19 12:13:37;;;;;;;11.77;9.77;;;11.40;24.10;;;;;;6146108;23;20454;-83
2022/03/19 12:16:04;;;;;;;14.23;8.03;;;11.40;22.60;;;;;;6157090;23;20423;-82
2022/03/19 12:18:39;;;;;;;12.43;8.83;;;11.40;22.30;;;;;;6266658;22;20838;-83
2022/03/19 12:21:11;;;;;;;13.10;9.27;;;11.20;22.50;;;;;;6274414;22;20838;-83
2022/03/19 12:23:58;;;;;;;14.60;12.47;;;11.30;22.40;;;;;;6273682;22;20381;-82
2022/03/19 12:26:50;;;;;;;13.73;10.50;;;11.30;22.50;;;;;;6274456;22;20463;-84
2022/03/19 12:29:20;;;;;;;12.43;10.03;;;11.30;22.50;;;;;;6274655;22;20416;-82
2022/03/19 12:35:13;;;;;;;18.70;8.80;;;11.50;22.40;;;;;;6268802;22;20413;-83
2022/03/19 12:38:15;;;;;;;12.90;8.80;;;11.40;22.20;;;;;;6275337;22;20458;-82
2022/03/19 12:43:42;;;;;;;11.57;8.43;;;11.70;22.30;;;;;;6276951;22;20403;-83
2022/03/19 12:46:14;;;;;;;10.80;9.70;;;11.60;22.40;;;;;;6277037;22;20365;-82
2022/03/19 12:48:42;;;;;;;13.00;9.13;;;11.50;22.30;;;;;;6275439;22;20431;-83
2022/03/19 12:51:30;;;;;;;11.73;8.70;;;11.20;22.50;;;;;;6276602;22;20472;-83
2022/03/19 12:54:17;;;;;;;12.93;7.40;;;11.10;22.80;;;;;;6276361;22;20428;-82
2022/03/19 12:56:43;;;;;;;10.40;7.50;;;11.20;22.10;;;;;;6274925;22;20723;-83
2022/03/19 12:59:29;;;;;;;10.83;7.60;;;11.30;21.30;;;;;;6275145;22;20381;-82
2022/03/19 13:02:04;;;;;;;8.83;7.00;;;11.30;21.90;;;;;;6276333;22;20381;-82
2022/03/19 13:04:31;;;;;;;9.93;7.57;;;11.40;20.40;;;;;;6274405;22;20381;-81
2022/03/19 13:06:59;;;;;;;9.37;7.40;;;11.30;20.70;;;;;;6274837;22;20377;-81
2022/03/19 13:09:31;;;;;;;8.70;7.80;;;11.30;20.10;;;;;;6274543;22;20378;-82
2022/03/19 13:12:05;;;;;;;9.60;7.67;;;11.30;20.30;;;;;;6275337;22;20467;-83
2022/03/19 13:14:32;;;;;;;13.53;7.90;;;11.30;20.70;;;;;;6275764;22;20451;-82
2022/03/19 13:17:11;;;;;;;7.20;6.20;;;11.30;20.00;;;;;;6273824;22;20431;-82
2022/03/19 13:23:36;;;;;;;8.40;7.60;;;11.40;21.20;;;;;;6275896;22;20399;-79
2022/03/19 13:26:24;;;;;;;6.90;6.20;;;11.50;20.00;;;;;;6276036;22;20857;-79
